N512AC -KCLT
Flight info
| Callsign | N512AC |
|---|---|
| Flight time | N/A |
| Altitude | |
| Route | FULL STOP |
| Aircraft | PC12/L-DOV/C |
Departure
| Time | N/A |
|---|---|
| Airport | - |
Arrival
| Time | 2026-05-08 00:42 |
|---|---|
| Airport | Charlotte Douglas International Airport (KCLT) |
| Time | Latitude | Longitude | Altitude | Speed | Heading |
|---|---|---|---|---|---|
| 2026-05-08 00:34 | 34.96666 | -81.01967 | 4098 ft | 116 kts | 14° |
| 2026-05-08 00:34 | 34.97434 | -81.01654 | 4128 ft | 119 kts | 10° |
| 2026-05-08 00:35 | 34.98266 | -81.01405 | 4141 ft | 128 kts | 7° |
| 2026-05-08 00:35 | 34.99109 | -81.01063 | 4323 ft | 128 kts | 24° |
| 2026-05-08 00:35 | 34.99878 | -81.00465 | 4268 ft | 140 kts | 24° |
| 2026-05-08 00:35 | 35.00684 | -80.99745 | 4098 ft | 149 kts | 44° |
| 2026-05-08 00:36 | 35.01358 | -80.98787 | 3908 ft | 149 kts | 39° |
| 2026-05-08 00:36 | 35.02096 | -80.97918 | 3654 ft | 145 kts | 38° |
| 2026-05-08 00:36 | 35.02777 | -80.97068 | 3778 ft | 125 kts | 41° |
| 2026-05-08 00:36 | 35.03313 | -80.96333 | 4068 ft | 120 kts | 39° |
| 2026-05-08 00:37 | 35.03953 | -80.95578 | 4235 ft | 122 kts | 34° |
| 2026-05-08 00:37 | 35.04632 | -80.94974 | 4446 ft | 134 kts | 25° |
| 2026-05-08 00:37 | 35.05452 | -80.94388 | 4475 ft | 146 kts | 24° |
| 2026-05-08 00:38 | 35.07435 | -80.93520 | 4312 ft | 154 kts | 0° |
| 2026-05-08 00:38 | 35.08470 | -80.93685 | 4261 ft | 147 kts | 339° |
| 2026-05-08 00:38 | 35.09413 | -80.93945 | 4262 ft | 141 kts | 358° |
| 2026-05-08 00:38 | 35.10406 | -80.93963 | 4245 ft | 144 kts | 354° |
| 2026-05-08 00:39 | 35.11383 | -80.94083 | 4303 ft | 141 kts | 348° |
| 2026-05-08 00:39 | 35.12374 | -80.94179 | 4229 ft | 147 kts | 1° |
| 2026-05-08 00:39 | 35.13356 | -80.94074 | 4274 ft | 141 kts | 2° |
| 2026-05-08 00:39 | 35.14226 | -80.93927 | 4049 ft | 108 kts | 9° |
| 2026-05-08 00:40 | 35.14892 | -80.93712 | 3613 ft | 96 kts | 11° |
| 2026-05-08 00:40 | 35.15509 | -80.93494 | 3220 ft | 85 kts | 14° |
| 2026-05-08 00:40 | 35.16057 | -80.93297 | 2765 ft | 82 kts | 12° |
| 2026-05-08 00:40 | 35.16629 | -80.93192 | 2263 ft | 85 kts | 9° |
| 2026-05-08 00:41 | 35.17218 | -80.93196 | 1804 ft | 85 kts | 359° |
| 2026-05-08 00:41 | 35.17832 | -80.93283 | 1454 ft | 94 kts | 359° |
| 2026-05-08 00:41 | 35.18480 | -80.93342 | 1298 ft | 95 kts | 0° |
| 2026-05-08 00:41 | 35.19135 | -80.93375 | 1147 ft | 94 kts | 2° |
| 2026-05-08 00:42 | 35.19786 | -80.93404 | 945 ft | 91 kts | 1° |
| 2026-05-08 00:42 | 35.20379 | -80.93442 | 746 ft | 76 kts | 359° |
| 2026-05-08 00:42 | 35.20820 | -80.93469 | 736 ft | 37 kts | 357° |
| 2026-05-08 00:42 | 35.21056 | -80.93430 | 737 ft | 38 kts | 38° |
| 2026-05-08 00:43 | 35.21125 | -80.93298 | 737 ft | 14 kts | 82° |
| 2026-05-08 00:43 | 35.21167 | -80.93260 | 737 ft | 0 kts | 356° |